sensor_id;sensor_type;location;lat;lon;timestamp;P1;durP1;ratioP1;P2;durP2;ratioP2
27666;SDS011;15074;50.940;5.282;2023-04-24T00:00:01;11.23;;;8.77;;
27666;SDS011;15074;50.940;5.282;2023-04-24T00:02:30;12.40;;;10.30;;
27666;SDS011;15074;50.940;5.282;2023-04-24T00:04:57;17.38;;;10.63;;
27666;SDS011;15074;50.940;5.282;2023-04-24T00:07:27;10.68;;;9.43;;
27666;SDS011;15074;50.940;5.282;2023-04-24T00:09:53;11.00;;;9.73;;
27666;SDS011;15074;50.940;5.282;2023-04-24T00:12:19;12.73;;;10.80;;
27666;SDS011;15074;50.940;5.282;2023-04-24T00:14:45;11.98;;;10.70;;
27666;SDS011;15074;50.940;5.282;2023-04-24T00:17:11;13.20;;;11.88;;
27666;SDS011;15074;50.940;5.282;2023-04-24T00:19:36;12.60;;;11.30;;
27666;SDS011;15074;50.940;5.282;2023-04-24T00:22:02;12.27;;;10.98;;
27666;SDS011;15074;50.940;5.282;2023-04-24T00:24:28;13.90;;;9.88;;
27666;SDS011;15074;50.940;5.282;2023-04-24T00:26:54;15.65;;;11.60;;
27666;SDS011;15074;50.940;5.282;2023-04-24T00:29:19;11.60;;;10.40;;
27666;SDS011;15074;50.940;5.282;2023-04-24T00:31:45;14.52;;;10.75;;
27666;SDS011;15074;50.940;5.282;2023-04-24T00:34:11;13.07;;;11.77;;
27666;SDS011;15074;50.940;5.282;2023-04-24T00:36:37;17.67;;;11.52;;
27666;SDS011;15074;50.940;5.282;2023-04-24T00:39:03;13.57;;;11.90;;
27666;SDS011;15074;50.940;5.282;2023-04-24T00:41:28;27.02;;;13.10;;
27666;SDS011;15074;50.940;5.282;2023-04-24T00:43:55;16.45;;;13.48;;
27666;SDS011;15074;50.940;5.282;2023-04-24T00:46:20;17.80;;;13.38;;
27666;SDS011;15074;50.940;5.282;2023-04-24T00:48:46;14.77;;;12.80;;
27666;SDS011;15074;50.940;5.282;2023-04-24T00:51:12;16.70;;;13.30;;
27666;SDS011;15074;50.940;5.282;2023-04-24T00:53:37;16.33;;;13.75;;
27666;SDS011;15074;50.940;5.282;2023-04-24T00:56:03;17.02;;;13.25;;
27666;SDS011;15074;50.940;5.282;2023-04-24T00:58:30;18.77;;;14.73;;
27666;SDS011;15074;50.940;5.282;2023-04-24T01:00:57;21.38;;;14.63;;
27666;SDS011;15074;50.940;5.282;2023-04-24T01:03:28;16.52;;;14.57;;
27666;SDS011;15074;50.940;5.282;2023-04-24T01:05:57;15.35;;;12.80;;
27666;SDS011;15074;50.940;5.282;2023-04-24T01:08:23;17.65;;;14.15;;
27666;SDS011;15074;50.940;5.282;2023-04-24T01:10:51;24.88;;;15.85;;
27666;SDS011;15074;50.940;5.282;2023-04-24T01:13:18;25.02;;;14.38;;
27666;SDS011;15074;50.940;5.282;2023-04-24T01:15:45;16.30;;;14.60;;
27666;SDS011;15074;50.940;5.282;2023-04-24T01:18:11;20.52;;;14.23;;
27666;SDS011;15074;50.940;5.282;2023-04-24T01:20:37;20.83;;;15.50;;
27666;SDS011;15074;50.940;5.282;2023-04-24T01:23:05;18.60;;;14.45;;
27666;SDS011;15074;50.940;5.282;2023-04-24T01:25:32;16.45;;;14.32;;
27666;SDS011;15074;50.940;5.282;2023-04-24T01:27:58;24.45;;;14.52;;
27666;SDS011;15074;50.940;5.282;2023-04-24T01:30:24;15.88;;;14.15;;
27666;SDS011;15074;50.940;5.282;2023-04-24T01:32:50;15.13;;;13.63;;
27666;SDS011;15074;50.940;5.282;2023-04-24T01:35:16;18.95;;;14.95;;
27666;SDS011;15074;50.940;5.282;2023-04-24T01:37:43;18.98;;;15.20;;
27666;SDS011;15074;50.940;5.282;2023-04-24T01:40:09;20.58;;;13.90;;
27666;SDS011;15074;50.940;5.282;2023-04-24T01:42:35;16.00;;;13.75;;
27666;SDS011;15074;50.940;5.282;2023-04-24T01:45:01;17.48;;;14.13;;
27666;SDS011;15074;50.940;5.282;2023-04-24T01:47:29;15.48;;;13.40;;
27666;SDS011;15074;50.940;5.282;2023-04-24T01:49:55;15.85;;;12.77;;
27666;SDS011;15074;50.940;5.282;2023-04-24T01:52:21;19.25;;;14.43;;
27666;SDS011;15074;50.940;5.282;2023-04-24T01:54:47;18.60;;;14.13;;
27666;SDS011;15074;50.940;5.282;2023-04-24T01:57:13;16.85;;;13.27;;
27666;SDS011;15074;50.940;5.282;2023-04-24T01:59:39;18.52;;;14.13;;
27666;SDS011;15074;50.940;5.282;2023-04-24T02:02:05;14.27;;;12.43;;
27666;SDS011;15074;50.940;5.282;2023-04-24T02:04:31;17.60;;;13.75;;
27666;SDS011;15074;50.940;5.282;2023-04-24T02:06:57;20.75;;;13.75;;
27666;SDS011;15074;50.940;5.282;2023-04-24T02:09:22;15.07;;;13.23;;
27666;SDS011;15074;50.940;5.282;2023-04-24T02:11:48;16.77;;;14.93;;
27666;SDS011;15074;50.940;5.282;2023-04-24T02:14:14;24.08;;;14.27;;
27666;SDS011;15074;50.940;5.282;2023-04-24T02:16:39;22.58;;;15.95;;
27666;SDS011;15074;50.940;5.282;2023-04-24T02:19:05;17.63;;;14.80;;
27666;SDS011;15074;50.940;5.282;2023-04-24T02:21:31;19.10;;;13.98;;
27666;SDS011;15074;50.940;5.282;2023-04-24T02:23:57;20.63;;;14.93;;
27666;SDS011;15074;50.940;5.282;2023-04-24T02:26:23;18.00;;;15.43;;
27666;SDS011;15074;50.940;5.282;2023-04-24T02:28:49;19.27;;;15.13;;
27666;SDS011;15074;50.940;5.282;2023-04-24T02:31:15;17.05;;;15.25;;
27666;SDS011;15074;50.940;5.282;2023-04-24T02:33:41;19.25;;;13.82;;
27666;SDS011;15074;50.940;5.282;2023-04-24T02:36:06;16.98;;;14.32;;
27666;SDS011;15074;50.940;5.282;2023-04-24T02:38:32;18.63;;;15.73;;
27666;SDS011;15074;50.940;5.282;2023-04-24T02:40:58;19.38;;;14.38;;
27666;SDS011;15074;50.940;5.282;2023-04-24T02:43:23;21.25;;;15.40;;
27666;SDS011;15074;50.940;5.282;2023-04-24T02:45:49;17.92;;;14.88;;
27666;SDS011;15074;50.940;5.282;2023-04-24T02:48:15;16.67;;;14.05;;
27666;SDS011;15074;50.940;5.282;2023-04-24T02:50:42;15.98;;;13.88;;
27666;SDS011;15074;50.940;5.282;2023-04-24T02:53:08;13.52;;;12.18;;
27666;SDS011;15074;50.940;5.282;2023-04-24T02:55:33;16.65;;;14.82;;
27666;SDS011;15074;50.940;5.282;2023-04-24T02:57:59;16.98;;;14.00;;
27666;SDS011;15074;50.940;5.282;2023-04-24T03:00:25;16.90;;;13.50;;
27666;SDS011;15074;50.940;5.282;2023-04-24T03:02:50;16.85;;;14.27;;
27666;SDS011;15074;50.940;5.282;2023-04-24T03:05:16;19.67;;;14.63;;
27666;SDS011;15074;50.940;5.282;2023-04-24T03:07:42;18.77;;;14.20;;
27666;SDS011;15074;50.940;5.282;2023-04-24T03:10:07;18.52;;;14.20;;
27666;SDS011;15074;50.940;5.282;2023-04-24T03:12:33;21.92;;;15.38;;
27666;SDS011;15074;50.940;5.282;2023-04-24T03:14:59;21.02;;;13.82;;
27666;SDS011;15074;50.940;5.282;2023-04-24T03:17:25;19.08;;;15.30;;
27666;SDS011;15074;50.940;5.282;2023-04-24T03:19:50;26.23;;;17.83;;
27666;SDS011;15074;50.940;5.282;2023-04-24T03:22:16;18.95;;;16.73;;
27666;SDS011;15074;50.940;5.282;2023-04-24T03:24:42;19.98;;;17.10;;
27666;SDS011;15074;50.940;5.282;2023-04-24T03:27:07;24.88;;;15.55;;
27666;SDS011;15074;50.940;5.282;2023-04-24T03:29:33;22.23;;;16.15;;
27666;SDS011;15074;50.940;5.282;2023-04-24T03:31:59;22.50;;;14.65;;
27666;SDS011;15074;50.940;5.282;2023-04-24T03:34:24;24.55;;;15.50;;
27666;SDS011;15074;50.940;5.282;2023-04-24T03:36:50;25.35;;;15.60;;
27666;SDS011;15074;50.940;5.282;2023-04-24T03:39:16;19.58;;;15.90;;
27666;SDS011;15074;50.940;5.282;2023-04-24T03:41:41;18.02;;;14.98;;
27666;SDS011;15074;50.940;5.282;2023-04-24T03:44:07;20.30;;;15.93;;
27666;SDS011;15074;50.940;5.282;2023-04-24T03:46:32;19.17;;;13.00;;
27666;SDS011;15074;50.940;5.282;2023-04-24T03:48:58;21.60;;;14.07;;
27666;SDS011;15074;50.940;5.282;2023-04-24T03:51:24;19.88;;;15.43;;
27666;SDS011;15074;50.940;5.282;2023-04-24T03:53:50;18.27;;;14.15;;
27666;SDS011;15074;50.940;5.282;2023-04-24T03:56:16;21.35;;;15.70;;
27666;SDS011;15074;50.940;5.282;2023-04-24T03:58:42;16.48;;;14.70;;
27666;SDS011;15074;50.940;5.282;2023-04-24T04:01:08;15.68;;;13.77;;
27666;SDS011;15074;50.940;5.282;2023-04-24T04:03:33;18.17;;;15.43;;
27666;SDS011;15074;50.940;5.282;2023-04-24T04:05:59;21.60;;;14.70;;
27666;SDS011;15074;50.940;5.282;2023-04-24T04:08:25;17.23;;;13.95;;
27666;SDS011;15074;50.940;5.282;2023-04-24T04:10:51;16.10;;;13.88;;
27666;SDS011;15074;50.940;5.282;2023-04-24T04:13:16;14.63;;;12.68;;
27666;SDS011;15074;50.940;5.282;2023-04-24T04:15:42;16.50;;;14.75;;
27666;SDS011;15074;50.940;5.282;2023-04-24T04:18:08;17.55;;;12.10;;
27666;SDS011;15074;50.940;5.282;2023-04-24T04:20:33;18.70;;;12.55;;
27666;SDS011;15074;50.940;5.282;2023-04-24T04:22:59;15.60;;;12.15;;
27666;SDS011;15074;50.940;5.282;2023-04-24T04:25:25;22.13;;;14.70;;
27666;SDS011;15074;50.940;5.282;2023-04-24T04:27:50;13.82;;;11.50;;
27666;SDS011;15074;50.940;5.282;2023-04-24T04:30:17;14.43;;;12.52;;
27666;SDS011;15074;50.940;5.282;2023-04-24T04:32:43;16.90;;;11.20;;
27666;SDS011;15074;50.940;5.282;2023-04-24T04:35:09;17.40;;;12.27;;
27666;SDS011;15074;50.940;5.282;2023-04-24T04:37:35;20.20;;;13.25;;
27666;SDS011;15074;50.940;5.282;2023-04-24T04:40:01;13.32;;;11.82;;
27666;SDS011;15074;50.940;5.282;2023-04-24T04:42:31;17.55;;;12.38;;
27666;SDS011;15074;50.940;5.282;2023-04-24T04:44:59;11.27;;;10.02;;
27666;SDS011;15074;50.940;5.282;2023-04-24T04:47:25;17.30;;;12.45;;
27666;SDS011;15074;50.940;5.282;2023-04-24T04:49:53;15.77;;;12.57;;
27666;SDS011;15074;50.940;5.282;2023-04-24T04:52:19;17.42;;;11.50;;
27666;SDS011;15074;50.940;5.282;2023-04-24T04:54:45;12.57;;;9.73;;
27666;SDS011;15074;50.940;5.282;2023-04-24T04:57:11;14.10;;;12.65;;
27666;SDS011;15074;50.940;5.282;2023-04-24T04:59:37;15.23;;;10.85;;
27666;SDS011;15074;50.940;5.282;2023-04-24T05:02:03;15.25;;;10.90;;
27666;SDS011;15074;50.940;5.282;2023-04-24T05:04:29;13.48;;;10.68;;
27666;SDS011;15074;50.940;5.282;2023-04-24T05:06:55;14.43;;;11.20;;
27666;SDS011;15074;50.940;5.282;2023-04-24T05:09:21;11.30;;;9.93;;
27666;SDS011;15074;50.940;5.282;2023-04-24T05:11:47;10.82;;;9.15;;
27666;SDS011;15074;50.940;5.282;2023-04-24T05:14:12;15.50;;;10.50;;
27666;SDS011;15074;50.940;5.282;2023-04-24T05:16:38;12.45;;;9.80;;
27666;SDS011;15074;50.940;5.282;2023-04-24T05:19:05;15.70;;;10.23;;
27666;SDS011;15074;50.940;5.282;2023-04-24T05:21:31;12.85;;;9.60;;
27666;SDS011;15074;50.940;5.282;2023-04-24T05:23:56;11.48;;;10.23;;
27666;SDS011;15074;50.940;5.282;2023-04-24T05:26:22;11.88;;;9.60;;
27666;SDS011;15074;50.940;5.282;2023-04-24T05:28:48;15.48;;;11.10;;
27666;SDS011;15074;50.940;5.282;2023-04-24T05:31:14;15.90;;;9.63;;
27666;SDS011;15074;50.940;5.282;2023-04-24T05:33:40;10.15;;;9.15;;
27666;SDS011;15074;50.940;5.282;2023-04-24T05:36:06;9.60;;;8.00;;
27666;SDS011;15074;50.940;5.282;2023-04-24T05:38:32;8.77;;;7.88;;
27666;SDS011;15074;50.940;5.282;2023-04-24T05:40:57;7.45;;;6.75;;
27666;SDS011;15074;50.940;5.282;2023-04-24T05:43:23;9.10;;;7.47;;
27666;SDS011;15074;50.940;5.282;2023-04-24T05:45:49;7.45;;;6.80;;
27666;SDS011;15074;50.940;5.282;2023-04-24T05:48:14;9.60;;;8.70;;
27666;SDS011;15074;50.940;5.282;2023-04-24T05:50:40;9.73;;;9.02;;
27666;SDS011;15074;50.940;5.282;2023-04-24T05:53:06;16.95;;;15.65;;
27666;SDS011;15074;50.940;5.282;2023-04-24T05:55:32;12.73;;;11.73;;
27666;SDS011;15074;50.940;5.282;2023-04-24T05:57:58;10.70;;;9.80;;
27666;SDS011;15074;50.940;5.282;2023-04-24T06:00:24;16.60;;;15.27;;
27666;SDS011;15074;50.940;5.282;2023-04-24T06:02:50;9.38;;;8.48;;
27666;SDS011;15074;50.940;5.282;2023-04-24T06:05:16;20.38;;;18.33;;
27666;SDS011;15074;50.940;5.282;2023-04-24T06:10:46;10.60;;;9.40;;
27666;SDS011;15074;50.940;5.282;2023-04-24T06:13:11;15.18;;;11.18;;
27666;SDS011;15074;50.940;5.282;2023-04-24T06:18:22;13.70;;;9.88;;
27666;SDS011;15074;50.940;5.282;2023-04-24T06:20:48;16.17;;;10.43;;
27666;SDS011;15074;50.940;5.282;2023-04-24T06:23:14;13.10;;;10.45;;
27666;SDS011;15074;50.940;5.282;2023-04-24T06:25:40;13.07;;;10.38;;
27666;SDS011;15074;50.940;5.282;2023-04-24T06:28:05;15.32;;;10.25;;
27666;SDS011;15074;50.940;5.282;2023-04-24T06:30:31;11.50;;;9.20;;
27666;SDS011;15074;50.940;5.282;2023-04-24T06:32:57;11.30;;;9.23;;
27666;SDS011;15074;50.940;5.282;2023-04-24T06:35:22;11.20;;;8.07;;
27666;SDS011;15074;50.940;5.282;2023-04-24T06:37:48;9.18;;;8.10;;
27666;SDS011;15074;50.940;5.282;2023-04-24T06:40:14;11.70;;;8.43;;
27666;SDS011;15074;50.940;5.282;2023-04-24T06:42:39;10.60;;;9.60;;
27666;SDS011;15074;50.940;5.282;2023-04-24T06:45:05;12.02;;;9.20;;
27666;SDS011;15074;50.940;5.282;2023-04-24T06:47:31;10.65;;;9.13;;
27666;SDS011;15074;50.940;5.282;2023-04-24T06:49:57;12.13;;;10.45;;
27666;SDS011;15074;50.940;5.282;2023-04-24T06:52:23;8.82;;;7.85;;
27666;SDS011;15074;50.940;5.282;2023-04-24T06:54:48;11.18;;;9.55;;
27666;SDS011;15074;50.940;5.282;2023-04-24T06:57:14;13.50;;;10.20;;
27666;SDS011;15074;50.940;5.282;2023-04-24T06:59:41;12.25;;;10.00;;
27666;SDS011;15074;50.940;5.282;2023-04-24T07:02:07;13.63;;;8.90;;
27666;SDS011;15074;50.940;5.282;2023-04-24T07:04:33;12.55;;;11.25;;
27666;SDS011;15074;50.940;5.282;2023-04-24T07:06:58;14.00;;;12.02;;
27666;SDS011;15074;50.940;5.282;2023-04-24T07:09:25;19.88;;;11.52;;
27666;SDS011;15074;50.940;5.282;2023-04-24T07:11:51;14.85;;;12.80;;
27666;SDS011;15074;50.940;5.282;2023-04-24T07:14:18;16.45;;;12.93;;
27666;SDS011;15074;50.940;5.282;2023-04-24T07:16:44;13.40;;;12.00;;
27666;SDS011;15074;50.940;5.282;2023-04-24T07:19:10;15.60;;;13.18;;
27666;SDS011;15074;50.940;5.282;2023-04-24T07:21:36;15.57;;;13.77;;
27666;SDS011;15074;50.940;5.282;2023-04-24T07:24:02;16.80;;;13.80;;
27666;SDS011;15074;50.940;5.282;2023-04-24T07:26:30;22.92;;;14.02;;
27666;SDS011;15074;50.940;5.282;2023-04-24T07:28:56;14.57;;;12.15;;
27666;SDS011;15074;50.940;5.282;2023-04-24T07:31:22;15.85;;;14.00;;
27666;SDS011;15074;50.940;5.282;2023-04-24T07:33:48;16.95;;;13.18;;
27666;SDS011;15074;50.940;5.282;2023-04-24T07:36:14;16.73;;;13.82;;
27666;SDS011;15074;50.940;5.282;2023-04-24T07:38:43;15.25;;;13.80;;
27666;SDS011;15074;50.940;5.282;2023-04-24T07:41:10;15.02;;;12.35;;
27666;SDS011;15074;50.940;5.282;2023-04-24T07:43:35;13.80;;;11.77;;
27666;SDS011;15074;50.940;5.282;2023-04-24T07:46:01;19.02;;;13.48;;
27666;SDS011;15074;50.940;5.282;2023-04-24T07:48:27;16.02;;;12.23;;
27666;SDS011;15074;50.940;5.282;2023-04-24T07:50:53;18.73;;;12.82;;
27666;SDS011;15074;50.940;5.282;2023-04-24T07:53:18;17.05;;;12.73;;
27666;SDS011;15074;50.940;5.282;2023-04-24T07:55:44;18.13;;;13.63;;
27666;SDS011;15074;50.940;5.282;2023-04-24T07:58:10;21.50;;;15.35;;
27666;SDS011;15074;50.940;5.282;2023-04-24T08:00:36;23.95;;;16.05;;
27666;SDS011;15074;50.940;5.282;2023-04-24T08:03:02;27.00;;;16.45;;
27666;SDS011;15074;50.940;5.282;2023-04-24T08:05:27;19.55;;;15.75;;
27666;SDS011;15074;50.940;5.282;2023-04-24T08:07:53;21.35;;;15.00;;
27666;SDS011;15074;50.940;5.282;2023-04-24T08:10:20;17.48;;;13.57;;
27666;SDS011;15074;50.940;5.282;2023-04-24T08:12:50;20.60;;;14.32;;
27666;SDS011;15074;50.940;5.282;2023-04-24T08:15:16;18.23;;;12.98;;
27666;SDS011;15074;50.940;5.282;2023-04-24T08:17:42;27.70;;;14.02;;
27666;SDS011;15074;50.940;5.282;2023-04-24T08:20:08;23.73;;;12.80;;
27666;SDS011;15074;50.940;5.282;2023-04-24T08:22:38;15.10;;;12.98;;
27666;SDS011;15074;50.940;5.282;2023-04-24T08:25:10;17.20;;;12.82;;
27666;SDS011;15074;50.940;5.282;2023-04-24T08:27:36;14.60;;;12.95;;
27666;SDS011;15074;50.940;5.282;2023-04-24T08:30:02;12.30;;;10.13;;
27666;SDS011;15074;50.940;5.282;2023-04-24T08:32:29;15.93;;;10.68;;
27666;SDS011;15074;50.940;5.282;2023-04-24T08:34:55;18.17;;;12.30;;
27666;SDS011;15074;50.940;5.282;2023-04-24T08:37:25;13.15;;;10.35;;
27666;SDS011;15074;50.940;5.282;2023-04-24T08:39:51;13.48;;;9.27;;
27666;SDS011;15074;50.940;5.282;2023-04-24T08:42:17;12.05;;;8.63;;
27666;SDS011;15074;50.940;5.282;2023-04-24T08:44:44;9.83;;;8.17;;
27666;SDS011;15074;50.940;5.282;2023-04-24T08:47:10;7.38;;;6.63;;
27666;SDS011;15074;50.940;5.282;2023-04-24T08:49:37;9.38;;;7.47;;
27666;SDS011;15074;50.940;5.282;2023-04-24T08:52:04;9.13;;;5.30;;
27666;SDS011;15074;50.940;5.282;2023-04-24T08:54:31;10.32;;;6.63;;
27666;SDS011;15074;50.940;5.282;2023-04-24T08:56:59;8.40;;;6.63;;
27666;SDS011;15074;50.940;5.282;2023-04-24T08:59:31;12.15;;;6.32;;
27666;SDS011;15074;50.940;5.282;2023-04-24T09:01:57;9.82;;;6.15;;
27666;SDS011;15074;50.940;5.282;2023-04-24T09:04:23;15.55;;;7.30;;
27666;SDS011;15074;50.940;5.282;2023-04-24T09:06:56;15.88;;;11.02;;
27666;SDS011;15074;50.940;5.282;2023-04-24T09:16:11;11.68;;;9.32;;
27666;SDS011;15074;50.940;5.282;2023-04-24T09:22:16;13.75;;;12.27;;
27666;SDS011;15074;50.940;5.282;2023-04-24T09:31:41;8.55;;;7.18;;
27666;SDS011;15074;50.940;5.282;2023-04-24T09:40:17;10.10;;;6.90;;
27666;SDS011;15074;50.940;5.282;2023-04-24T09:42:46;9.02;;;6.55;;
27666;SDS011;15074;50.940;5.282;2023-04-24T09:45:18;10.98;;;7.07;;
27666;SDS011;15074;50.940;5.282;2023-04-24T09:47:44;9.65;;;6.93;;
27666;SDS011;15074;50.940;5.282;2023-04-24T09:50:11;9.35;;;5.75;;
27666;SDS011;15074;50.940;5.282;2023-04-24T09:52:42;11.40;;;5.70;;
27666;SDS011;15074;50.940;5.282;2023-04-24T09:55:13;8.27;;;6.55;;
27666;SDS011;15074;50.940;5.282;2023-04-24T09:57:47;12.23;;;7.22;;
27666;SDS011;15074;50.940;5.282;2023-04-24T10:00:18;14.43;;;7.18;;
27666;SDS011;15074;50.940;5.282;2023-04-24T10:02:49;11.10;;;7.00;;
27666;SDS011;15074;50.940;5.282;2023-04-24T10:05:15;8.63;;;6.38;;
27666;SDS011;15074;50.940;5.282;2023-04-24T10:07:43;9.68;;;6.68;;
27666;SDS011;15074;50.940;5.282;2023-04-24T10:10:09;8.57;;;4.90;;
27666;SDS011;15074;50.940;5.282;2023-04-24T10:12:35;6.22;;;4.53;;
27666;SDS011;15074;50.940;5.282;2023-04-24T10:15:02;4.95;;;3.75;;
27666;SDS011;15074;50.940;5.282;2023-04-24T10:17:30;7.55;;;5.43;;
27666;SDS011;15074;50.940;5.282;2023-04-24T10:19:57;7.15;;;5.55;;
27666;SDS011;15074;50.940;5.282;2023-04-24T10:22:25;8.60;;;5.55;;
27666;SDS011;15074;50.940;5.282;2023-04-24T10:24:51;10.65;;;7.05;;
27666;SDS011;15074;50.940;5.282;2023-04-24T10:27:17;10.68;;;7.13;;
27666;SDS011;15074;50.940;5.282;2023-04-24T10:29:45;9.02;;;6.70;;
27666;SDS011;15074;50.940;5.282;2023-04-24T10:32:12;10.10;;;6.78;;
27666;SDS011;15074;50.940;5.282;2023-04-24T10:34:38;10.55;;;7.20;;
27666;SDS011;15074;50.940;5.282;2023-04-24T10:37:11;8.88;;;6.10;;
27666;SDS011;15074;50.940;5.282;2023-04-24T10:39:38;6.57;;;5.88;;
27666;SDS011;15074;50.940;5.282;2023-04-24T10:42:15;9.63;;;5.32;;
27666;SDS011;15074;50.940;5.282;2023-04-24T10:44:41;9.27;;;5.32;;
27666;SDS011;15074;50.940;5.282;2023-04-24T10:47:07;8.32;;;5.25;;
27666;SDS011;15074;50.940;5.282;2023-04-24T10:49:38;9.98;;;5.82;;
27666;SDS011;15074;50.940;5.282;2023-04-24T10:52:04;14.50;;;7.03;;
27666;SDS011;15074;50.940;5.282;2023-04-24T10:54:44;8.23;;;6.70;;
27666;SDS011;15074;50.940;5.282;2023-04-24T10:59:46;9.40;;;6.32;;
27666;SDS011;15074;50.940;5.282;2023-04-24T11:02:16;14.85;;;7.50;;
27666;SDS011;15074;50.940;5.282;2023-04-24T11:04:43;16.10;;;8.40;;
27666;SDS011;15074;50.940;5.282;2023-04-24T11:07:10;10.18;;;8.10;;
27666;SDS011;15074;50.940;5.282;2023-04-24T11:09:36;13.95;;;8.52;;
27666;SDS011;15074;50.940;5.282;2023-04-24T11:12:09;11.77;;;7.82;;
27666;SDS011;15074;50.940;5.282;2023-04-24T11:22:32;6.78;;;4.50;;
27666;SDS011;15074;50.940;5.282;2023-04-24T11:25:03;7.88;;;4.28;;
27666;SDS011;15074;50.940;5.282;2023-04-24T11:27:38;6.47;;;5.10;;
27666;SDS011;15074;50.940;5.282;2023-04-24T11:30:06;5.97;;;3.78;;
27666;SDS011;15074;50.940;5.282;2023-04-24T11:34:58;6.25;;;4.22;;
27666;SDS011;15074;50.940;5.282;2023-04-24T11:37:28;5.47;;;3.63;;
27666;SDS011;15074;50.940;5.282;2023-04-24T11:40:02;7.22;;;5.15;;
27666;SDS011;15074;50.940;5.282;2023-04-24T11:42:33;5.23;;;4.03;;
27666;SDS011;15074;50.940;5.282;2023-04-24T11:45:13;6.95;;;4.05;;
27666;SDS011;15074;50.940;5.282;2023-04-24T11:47:39;10.80;;;4.68;;
27666;SDS011;15074;50.940;5.282;2023-04-24T11:50:06;5.80;;;4.00;;
27666;SDS011;15074;50.940;5.282;2023-04-24T11:52:41;5.05;;;3.53;;
27666;SDS011;15074;50.940;5.282;2023-04-24T11:57:42;5.25;;;3.90;;
27666;SDS011;15074;50.940;5.282;2023-04-24T12:00:14;4.93;;;4.10;;
27666;SDS011;15074;50.940;5.282;2023-04-24T12:05:33;7.68;;;3.45;;
27666;SDS011;15074;50.940;5.282;2023-04-24T12:08:00;6.45;;;3.65;;
27666;SDS011;15074;50.940;5.282;2023-04-24T12:10:26;3.22;;;2.60;;
27666;SDS011;15074;50.940;5.282;2023-04-24T12:12:53;2.72;;;2.22;;
27666;SDS011;15074;50.940;5.282;2023-04-24T12:15:21;4.18;;;2.33;;
27666;SDS011;15074;50.940;5.282;2023-04-24T12:17:47;3.25;;;2.25;;
27666;SDS011;15074;50.940;5.282;2023-04-24T12:20:15;4.72;;;2.60;;
27666;SDS011;15074;50.940;5.282;2023-04-24T12:25:12;2.90;;;2.03;;
27666;SDS011;15074;50.940;5.282;2023-04-24T12:27:39;3.30;;;2.20;;
27666;SDS011;15074;50.940;5.282;2023-04-24T12:30:05;5.18;;;2.20;;
27666;SDS011;15074;50.940;5.282;2023-04-24T12:32:48;4.30;;;3.03;;
27666;SDS011;15074;50.940;5.282;2023-04-24T12:35:21;5.65;;;4.05;;
27666;SDS011;15074;50.940;5.282;2023-04-24T12:37:48;5.03;;;3.78;;
27666;SDS011;15074;50.940;5.282;2023-04-24T12:40:15;6.10;;;3.67;;
27666;SDS011;15074;50.940;5.282;2023-04-24T12:42:48;4.55;;;3.05;;
27666;SDS011;15074;50.940;5.282;2023-04-24T12:45:15;6.40;;;2.95;;
27666;SDS011;15074;50.940;5.282;2023-04-24T12:47:43;5.47;;;2.90;;
27666;SDS011;15074;50.940;5.282;2023-04-24T12:50:14;5.40;;;2.95;;
27666;SDS011;15074;50.940;5.282;2023-04-24T12:52:40;6.03;;;3.25;;
27666;SDS011;15074;50.940;5.282;2023-04-24T12:55:07;6.43;;;2.92;;
27666;SDS011;15074;50.940;5.282;2023-04-24T12:57:34;4.80;;;2.88;;
27666;SDS011;15074;50.940;5.282;2023-04-24T13:00:00;5.22;;;3.58;;
27666;SDS011;15074;50.940;5.282;2023-04-24T13:02:27;4.43;;;3.17;;
27666;SDS011;15074;50.940;5.282;2023-04-24T13:04:57;7.18;;;3.50;;
27666;SDS011;15074;50.940;5.282;2023-04-24T13:07:23;5.70;;;3.15;;
27666;SDS011;15074;50.940;5.282;2023-04-24T13:09:50;6.07;;;2.70;;
27666;SDS011;15074;50.940;5.282;2023-04-24T13:12:16;3.50;;;2.72;;
27666;SDS011;15074;50.940;5.282;2023-04-24T13:14:42;4.28;;;2.90;;
27666;SDS011;15074;50.940;5.282;2023-04-24T13:17:08;7.45;;;3.42;;
27666;SDS011;15074;50.940;5.282;2023-04-24T13:19:37;4.95;;;2.97;;
27666;SDS011;15074;50.940;5.282;2023-04-24T13:22:05;4.50;;;3.10;;
27666;SDS011;15074;50.940;5.282;2023-04-24T13:24:31;3.78;;;2.83;;
27666;SDS011;15074;50.940;5.282;2023-04-24T13:26:57;4.40;;;3.17;;
27666;SDS011;15074;50.940;5.282;2023-04-24T13:29:23;4.43;;;2.95;;
27666;SDS011;15074;50.940;5.282;2023-04-24T13:31:53;6.50;;;3.13;;
27666;SDS011;15074;50.940;5.282;2023-04-24T13:34:20;5.57;;;3.38;;
27666;SDS011;15074;50.940;5.282;2023-04-24T13:36:52;3.92;;;2.80;;
27666;SDS011;15074;50.940;5.282;2023-04-24T13:39:19;5.43;;;3.08;;
27666;SDS011;15074;50.940;5.282;2023-04-24T13:41:45;7.57;;;3.00;;
27666;SDS011;15074;50.940;5.282;2023-04-24T13:44:15;3.40;;;3.08;;
27666;SDS011;15074;50.940;5.282;2023-04-24T13:46:41;3.47;;;2.80;;
27666;SDS011;15074;50.940;5.282;2023-04-24T13:49:11;3.67;;;2.90;;
27666;SDS011;15074;50.940;5.282;2023-04-24T13:51:37;6.45;;;3.72;;
27666;SDS011;15074;50.940;5.282;2023-04-24T13:54:03;3.20;;;2.53;;
27666;SDS011;15074;50.940;5.282;2023-04-24T13:56:29;3.88;;;3.05;;
27666;SDS011;15074;50.940;5.282;2023-04-24T13:58:55;6.63;;;3.85;;
27666;SDS011;15074;50.940;5.282;2023-04-24T14:01:21;4.13;;;3.17;;
27666;SDS011;15074;50.940;5.282;2023-04-24T14:03:50;9.10;;;8.27;;
27666;SDS011;15074;50.940;5.282;2023-04-24T14:06:17;5.75;;;2.90;;
27666;SDS011;15074;50.940;5.282;2023-04-24T14:08:43;2.75;;;2.25;;
27666;SDS011;15074;50.940;5.282;2023-04-24T14:11:09;2.90;;;2.05;;
27666;SDS011;15074;50.940;5.282;2023-04-24T14:13:35;4.60;;;2.17;;
27666;SDS011;15074;50.940;5.282;2023-04-24T14:16:02;4.93;;;2.30;;
27666;SDS011;15074;50.940;5.282;2023-04-24T14:18:29;2.80;;;2.50;;
27666;SDS011;15074;50.940;5.282;2023-04-24T14:20:54;5.18;;;3.20;;
27666;SDS011;15074;50.940;5.282;2023-04-24T14:23:20;3.60;;;2.38;;
27666;SDS011;15074;50.940;5.282;2023-04-24T14:25:46;3.88;;;2.20;;
27666;SDS011;15074;50.940;5.282;2023-04-24T14:28:17;3.05;;;2.20;;
27666;SDS011;15074;50.940;5.282;2023-04-24T14:30:44;5.57;;;2.45;;
27666;SDS011;15074;50.940;5.282;2023-04-24T14:33:10;4.30;;;3.05;;
27666;SDS011;15074;50.940;5.282;2023-04-24T14:35:37;4.93;;;2.78;;
27666;SDS011;15074;50.940;5.282;2023-04-24T14:38:02;3.83;;;3.00;;
27666;SDS011;15074;50.940;5.282;2023-04-24T14:40:28;5.15;;;3.00;;
27666;SDS011;15074;50.940;5.282;2023-04-24T14:42:54;3.47;;;3.08;;
27666;SDS011;15074;50.940;5.282;2023-04-24T14:45:22;3.05;;;2.30;;
27666;SDS011;15074;50.940;5.282;2023-04-24T14:47:47;3.03;;;2.53;;
27666;SDS011;15074;50.940;5.282;2023-04-24T14:50:13;5.45;;;3.10;;
27666;SDS011;15074;50.940;5.282;2023-04-24T14:52:39;7.05;;;3.10;;
27666;SDS011;15074;50.940;5.282;2023-04-24T14:55:05;4.20;;;2.80;;
27666;SDS011;15074;50.940;5.282;2023-04-24T14:57:32;3.20;;;2.45;;
27666;SDS011;15074;50.940;5.282;2023-04-24T15:00:01;3.95;;;2.15;;
27666;SDS011;15074;50.940;5.282;2023-04-24T15:02:28;3.92;;;2.25;;
27666;SDS011;15074;50.940;5.282;2023-04-24T15:04:54;3.22;;;2.20;;
27666;SDS011;15074;50.940;5.282;2023-04-24T15:07:19;3.13;;;2.10;;
27666;SDS011;15074;50.940;5.282;2023-04-24T15:09:45;3.20;;;2.30;;
27666;SDS011;15074;50.940;5.282;2023-04-24T15:12:12;3.58;;;2.47;;
27666;SDS011;15074;50.940;5.282;2023-04-24T15:14:38;2.50;;;2.28;;
27666;SDS011;15074;50.940;5.282;2023-04-24T15:17:04;3.20;;;2.28;;
27666;SDS011;15074;50.940;5.282;2023-04-24T15:19:30;2.33;;;2.13;;